Time;durP1;ratioP1;P1;durP2;ratioP2;P2;SDS_P1;SDS_P2;PMS_P1;PMS_P2;Temp;Humidity;BMP_temperature;BMP_pressure;BME280_temperature;BME280_humidity;BME280_pressure;Samples;Min_cycle;Max_cycle;Signal;HPM_P1;HPM_P2
2022/06/21 00:03:42;;;;;;;15.82;10.05;;;15.10;99.90;;;;;;21059277;28;20036;-58
2022/06/21 00:13:44;;;;;;;16.88;10.00;;;14.80;99.90;;;;;;20987804;28;20105;-58
2022/06/21 00:23:49;;;;;;;13.38;9.23;;;14.70;99.90;;;;;;20974086;28;20036;-58
2022/06/21 00:33:53;;;;;;;19.48;10.15;;;14.70;99.90;;;;;;20973182;28;20426;-58
2022/06/21 00:43:56;;;;;;;15.13;8.68;;;14.60;99.90;;;;;;20972240;28;20559;-58
2022/06/21 00:54:08;;;;;;;11.98;6.78;;;14.60;99.90;;;;;;20984089;28;20427;-52
2022/06/21 01:04:40;;;;;;;22.17;7.72;;;14.60;99.90;;;;;;21053422;28;20109;-58
2022/06/21 01:14:49;;;;;;;12.55;6.60;;;14.50;99.90;;;;;;21053171;28;20352;-52
2022/06/21 01:25:18;;;;;;;8.67;6.00;;;14.60;99.90;;;;;;21052775;28;20043;-48
2022/06/21 01:35:35;;;;;;;10.88;4.70;;;14.60;99.90;;;;;;21029081;28;20843;-58
2022/06/21 01:45:43;;;;;;;7.63;5.20;;;14.50;99.90;;;;;;20967772;28;20037;-57
2022/06/21 01:56:02;;;;;;;6.93;4.32;;;14.70;99.90;;;;;;20966996;28;20036;-58
2022/06/21 02:06:12;;;;;;;6.85;4.70;;;14.60;99.90;;;;;;20972732;28;20082;-57
2022/06/21 02:16:21;;;;;;;7.43;4.50;;;14.50;99.90;;;;;;21049425;28;20425;-57
2022/06/21 02:26:26;;;;;;;8.85;5.30;;;14.40;99.90;;;;;;21049077;28;20032;-57
2022/06/21 02:36:32;;;;;;;9.65;5.57;;;14.30;99.90;;;;;;21048921;28;20504;-50
2022/06/21 02:46:38;;;;;;;9.88;4.80;;;14.30;99.90;;;;;;21048495;28;20339;-50
2022/06/21 02:57:10;;;;;;;7.45;4.40;;;14.30;99.90;;;;;;21012939;28;20198;-56
2022/06/21 03:07:16;;;;;;;5.43;4.30;;;14.30;99.90;;;;;;20963015;28;20503;-57
2022/06/21 03:17:23;;;;;;;7.55;4.93;;;14.30;99.90;;;;;;20964155;28;20044;-52
2022/06/21 03:27:48;;;;;;;8.88;4.53;;;14.30;99.90;;;;;;20965006;28;20037;-48
2022/06/21 03:37:51;;;;;;;12.10;5.13;;;14.30;99.90;;;;;;21018715;28;20039;-56
2022/06/21 03:48:23;;;;;;;8.10;5.03;;;14.40;99.90;;;;;;21060849;28;20035;-51
2022/06/21 03:58:47;;;;;;;9.50;4.65;;;14.50;99.90;;;;;;21059754;28;20097;-52
2022/06/21 04:09:07;;;;;;;6.20;4.75;;;14.50;99.90;;;;;;21030051;28;20040;-56
2022/06/21 04:19:25;;;;;;;8.27;5.32;;;14.60;99.90;;;;;;20975001;28;20457;-56
2022/06/21 04:29:38;;;;;;;9.82;5.20;;;14.60;99.90;;;;;;20973581;28;20048;-51
2022/06/21 04:39:53;;;;;;;10.38;5.40;;;14.80;99.90;;;;;;20972975;28;20106;-56
2022/06/21 04:50:02;;;;;;;8.07;5.15;;;15.00;99.90;;;;;;20989945;28;20028;-57
2022/06/21 05:00:18;;;;;;;;;;;15.50;99.90;;;;;;20989807;28;20036;-56
2022/06/21 05:10:28;;;;;;;8.77;5.30;;;15.90;99.90;;;;;;20970377;28;19912;-49
2022/06/21 05:20:35;;;;;;;7.07;4.85;;;16.10;99.90;;;;;;20969180;28;20052;-50
2022/06/21 05:30:41;;;;;;;6.45;4.45;;;16.20;99.90;;;;;;20968773;28;20102;-57
2022/06/21 05:40:55;;;;;;;7.28;4.63;;;16.40;99.90;;;;;;20967842;28;20542;-52
2022/06/21 05:51:00;;;;;;;6.18;4.55;;;16.50;99.90;;;;;;20966770;28;20024;-57
2022/06/21 06:01:18;;;;;;;6.93;5.00;;;16.70;99.90;;;;;;21038885;28;20455;-53
2022/06/21 06:22:07;;;;;;;7.53;4.03;;;20.10;99.90;;;;;;20629429;28;20042;-58
2022/06/21 06:32:32;;;;;;;8.18;4.43;;;22.60;99.90;;;;;;20645220;28;20383;-58
2022/06/21 06:42:39;;;;;;;8.45;4.10;;;24.10;99.90;;;;;;20645363;28;20100;-58
2022/06/21 06:52:58;;;;;;;10.55;5.18;;;25.10;98.70;;;;;;20749162;28;20040;-59
2022/06/21 07:03:25;;;;;;;6.65;4.90;;;26.30;98.70;;;;;;20950928;28;20490;-59
2022/06/21 07:13:28;;;;;;;17.10;6.30;;;28.20;96.20;;;;;;20805722;28;20085;-59
2022/06/21 07:23:32;;;;;;;10.98;6.25;;;29.40;93.60;;;;;;20805173;28;20054;-61
2022/06/21 07:33:40;;;;;;;10.23;7.27;;;;;;;;;;20803411;28;20057;-61
2022/06/21 07:43:50;;;;;;;8.65;7.25;;;30.10;89.90;;;;;;20945815;28;20490;-60
2022/06/21 07:54:08;;;;;;;13.27;7.32;;;29.50;91.90;;;;;;20989560;28;20410;-60
2022/06/21 08:14:47;;;;;;;10.13;8.20;;;29.00;91.80;;;;;;21056551;28;20062;-60
2022/06/21 08:25:00;;;;;;;9.10;7.15;;;28.70;92.30;;;;;;21058079;28;20044;-61
2022/06/21 08:35:25;;;;;;;8.73;7.80;;;28.80;92.40;;;;;;21057070;28;20386;-60
2022/06/21 08:45:50;;;;;;;8.27;7.15;;;28.70;92.90;;;;;;21056185;28;20073;-61
2022/06/21 08:56:08;;;;;;;9.50;6.88;;;28.70;93.10;;;;;;21026447;28;20098;-61
2022/06/21 09:06:32;;;;;;;15.52;8.20;;;28.70;92.80;;;;;;20970859;28;20037;-61
2022/06/21 09:16:47;;;;;;;11.10;8.07;;;29.20;92.60;;;;;;20969813;28;20368;-56
2022/06/21 09:27:04;;;;;;;18.90;9.27;;;29.30;93.30;;;;;;20968625;28;20041;-61
2022/06/21 09:37:24;;;;;;;11.35;9.00;;;29.50;93.50;;;;;;20968185;28;20090;-61
2022/06/21 09:47:33;;;;;;;11.10;9.82;;;29.20;91.90;;;;;;20967500;28;20090;-61
2022/06/21 09:58:06;;;;;;;11.02;9.93;;;28.50;93.70;;;;;;21011361;28;20078;-61
2022/06/21 10:08:19;;;;;;;13.98;11.05;;;28.60;94.90;;;;;;21049872;28;20040;-61
2022/06/21 10:19:02;;;;;;;12.13;10.25;;;28.70;93.80;;;;;;21049244;28;20040;-61
2022/06/21 10:29:14;;;;;;;13.52;12.10;;;28.80;94.60;;;;;;21049193;28;20097;-60
2022/06/21 10:39:45;;;;;;;12.73;11.05;;;29.00;93.20;;;;;;21055808;28;20105;-60
2022/06/21 10:50:05;;;;;;;11.52;8.30;;;28.20;94.10;;;;;;21065037;28;20032;-61
2022/06/21 11:10:54;;;;;;;11.93;8.82;;;28.50;94.50;;;;;;20979311;28;20082;-61
2022/06/21 11:21:49;;;;;;;12.55;8.20;;;28.60;93.10;;;;;;20978391;28;20125;-62
2022/06/21 11:32:24;;;;;;;12.25;7.63;;;28.70;93.20;;;;;;20722444;28;20128;-61
2022/06/21 11:42:50;;;;;;;10.77;7.30;;;28.60;93.80;;;;;;20560335;28;20042;-62
2022/06/21 11:53:19;;;;;;;17.27;7.47;;;29.00;92.70;;;;;;20574732;28;20125;-62
2022/06/21 12:03:27;;;;;;;19.08;9.82;;;29.00;93.30;;;;;;20671376;28;20489;-62
2022/06/21 12:14:09;;;;;;;11.68;8.40;;;29.30;91.40;;;;;;20794998;28;20391;-61
2022/06/21 12:24:19;;;;;;;13.60;7.30;;;29.00;93.50;;;;;;20958522;28;20568;-62
2022/06/21 12:34:47;;;;;;;9.43;6.57;;;28.90;93.00;;;;;;20957208;28;20045;-62
2022/06/21 12:45:27;;;;;;;11.80;7.32;;;29.20;94.30;;;;;;20972451;28;20028;-61
2022/06/21 12:55:44;;;;;;;8.73;5.72;;;28.80;92.70;;;;;;20997827;28;20028;-62
2022/06/21 13:06:13;;;;;;;9.90;5.38;;;28.90;93.80;;;;;;21053944;28;20036;-62
2022/06/21 13:16:31;;;;;;;11.90;6.15;;;29.30;93.10;;;;;;21053820;28;20562;-62
2022/06/21 13:26:59;;;;;;;10.55;4.75;;;29.40;91.30;;;;;;21020407;28;20035;-62
2022/06/21 13:37:22;;;;;;;10.02;5.40;;;29.50;92.40;;;;;;21051467;28;20153;-62
2022/06/21 13:47:51;;;;;;;9.38;6.07;;;29.60;92.10;;;;;;21051173;28;20036;-61
2022/06/21 13:58:27;;;;;;;7.82;5.40;;;29.20;90.80;;;;;;21004995;28;20041;-62
2022/06/21 14:08:41;;;;;;;10.83;6.50;;;29.20;91.90;;;;;;20966754;28;20032;-61
2022/06/21 14:19:06;;;;;;;9.93;6.40;;;29.40;90.90;;;;;;20965958;28;20102;-62
2022/06/21 14:29:13;;;;;;;;;;;29.40;90.60;;;;;;20966468;28;20037;-61
2022/06/21 14:39:37;;;;;;;11.30;5.57;;;29.40;90.20;;;;;;20965285;28;20804;-61
2022/06/21 14:50:09;;;;;;;11.32;6.35;;;29.30;91.00;;;;;;20966495;28;20433;-60
2022/06/21 15:00:33;;;;;;;11.68;7.10;;;28.50;90.40;;;;;;21029549;28;20109;-61
2022/06/21 15:10:47;;;;;;;20.17;6.43;;;29.40;90.40;;;;;;21047756;28;20032;-61
2022/06/21 15:21:08;;;;;;;16.90;7.25;;;29.40;90.40;;;;;;20980951;28;20053;-60
2022/06/21 15:31:54;;;;;;;10.02;7.20;;;29.30;90.10;;;;;;20993624;28;20402;-61
2022/06/21 15:42:16;;;;;;;10.60;7.17;;;28.80;90.10;;;;;;20738572;28;20084;-61
2022/06/21 15:52:30;;;;;;;14.93;7.80;;;29.00;88.60;;;;;;20721081;28;20416;-60
2022/06/21 16:02:57;;;;;;;10.73;7.05;;;28.30;90.30;;;;;;20720275;28;20085;-60
2022/06/21 16:13:08;;;;;;;13.52;6.65;;;27.10;91.30;;;;;;20773404;28;20040;-60
2022/06/21 16:23:37;;;;;;;10.43;6.32;;;26.30;93.10;;;;;;20974363;28;20028;-60
2022/06/21 16:33:42;;;;;;;12.15;6.60;;;25.80;93.30;;;;;;20973677;28;20098;-60
2022/06/21 16:44:07;;;;;;;10.27;5.72;;;25.30;93.80;;;;;;20973030;28;20552;-59
2022/06/21 16:54:32;;;;;;;11.23;6.80;;;24.90;93.90;;;;;;20986388;28;20040;-60
2022/06/21 17:04:37;;;;;;;12.05;6.57;;;23.90;94.90;;;;;;21054907;28;20435;-60
2022/06/21 17:14:48;;;;;;;7.55;6.13;;;23.20;95.80;;;;;;21053978;28;20109;-59
2022/06/21 17:24:57;;;;;;;8.13;5.20;;;22.60;97.70;;;;;;21053933;28;20093;-59
2022/06/21 17:35:08;;;;;;;12.10;6.20;;;22.30;99.00;;;;;;21052553;28;20036;-50
2022/06/21 17:45:30;;;;;;;10.93;6.20;;;22.20;99.70;;;;;;21050841;28;20537;-59
2022/06/21 17:55:44;;;;;;;9.30;5.95;;;22.10;99.10;;;;;;21025174;28;20457;-59
2022/06/21 18:05:50;;;;;;;7.45;5.40;;;21.80;99.70;;;;;;20967140;28;20045;-58
2022/06/21 18:16:12;;;;;;;10.45;5.90;;;21.40;99.40;;;;;;20966207;28;20040;-59
2022/06/21 18:26:47;;;;;;;11.48;5.80;;;21.00;99.90;;;;;;20966731;28;20667;-53
2022/06/21 18:37:10;;;;;;;14.52;6.50;;;20.40;99.90;;;;;;20710101;28;20054;-58
2022/06/21 18:47:41;;;;;;;11.05;5.90;;;19.90;99.90;;;;;;20710553;28;20054;-58
2022/06/21 18:57:46;;;;;;;10.77;6.30;;;19.50;99.90;;;;;;20755993;28;20045;-58
2022/06/21 19:18:35;;;;;;;17.85;7.63;;;18.70;99.90;;;;;;21062425;28;20044;-50
2022/06/21 19:29:15;;;;;;;11.02;7.90;;;18.60;99.90;;;;;;21062922;28;20105;-57
2022/06/21 19:39:55;;;;;;;9.88;7.30;;;18.50;99.90;;;;;;21062244;28;20043;-57
2022/06/21 19:50:22;;;;;;;11.15;7.55;;;18.30;99.90;;;;;;21060901;28;20549;-58
2022/06/21 20:00:28;;;;;;;13.38;7.72;;;18.10;99.90;;;;;;21011363;28;20036;-57
2022/06/21 20:10:38;;;;;;;10.00;6.90;;;18.40;99.90;;;;;;20976060;28;20463;-57
2022/06/21 20:21:09;;;;;;;13.80;6.30;;;18.60;99.90;;;;;;20974522;28;20052;-57
2022/06/21 20:31:24;;;;;;;10.20;6.78;;;18.60;99.90;;;;;;20973970;28;20131;-57
2022/06/21 20:41:34;;;;;;;11.55;6.13;;;18.50;99.90;;;;;;20973008;28;20033;-57
2022/06/21 20:52:33;;;;;;;8.23;5.78;;;18.50;99.90;;;;;;20972439;28;20055;-57
2022/06/21 21:02:39;;;;;;;;;;;18.80;99.90;;;;;;20474616;29;20458;-58
2022/06/21 21:12:52;;;;;;;11.35;7.30;;;18.90;99.90;;;;;;20490016;28;20369;-57
2022/06/21 21:23:03;;;;;;;12.13;8.80;;;18.60;99.90;;;;;;20488318;28;20043;-54
2022/06/21 21:33:38;;;;;;;16.73;11.15;;;18.20;99.90;;;;;;20633657;28;20044;-51
2022/06/21 21:43:44;;;;;;;16.10;10.57;;;17.60;99.90;;;;;;20967189;28;20032;-55
2022/06/21 21:53:51;;;;;;;19.70;10.73;;;17.30;99.90;;;;;;20967533;28;20439;-55
2022/06/21 22:04:18;;;;;;;16.65;11.40;;;17.10;99.90;;;;;;20984217;28;20074;-57
2022/06/21 22:14:39;;;;;;;19.05;13.02;;;16.90;99.90;;;;;;20983218;28;20491;-54
2022/06/21 22:24:42;;;;;;;17.20;12.75;;;16.70;99.90;;;;;;20982704;28;20036;-56
2022/06/21 22:34:44;;;;;;;18.73;12.85;;;16.50;99.90;;;;;;20993793;28;20094;-51
2022/06/21 22:44:53;;;;;;;24.10;13.88;;;16.50;99.90;;;;;;21009691;28;20032;-52
2022/06/21 22:54:58;;;;;;;20.47;13.83;;;16.40;99.90;;;;;;21031032;28;20036;-57
2022/06/21 23:05:23;;;;;;;25.42;14.40;;;16.30;99.90;;;;;;21076213;28;20028;-56
2022/06/21 23:15:29;;;;;;;22.08;13.25;;;16.30;99.90;;;;;;21075440;28;20085;-56
2022/06/21 23:25:37;;;;;;;19.38;13.88;;;16.20;99.90;;;;;;21075499;28;20559;-57
2022/06/21 23:35:49;;;;;;;27.15;13.32;;;16.10;99.90;;;;;;21074749;28;20039;-57
2022/06/21 23:45:51;;;;;;;22.02;13.35;;;16.20;99.90;;;;;;21068883;28;20062;-56
2022/06/21 23:55:57;;;;;;;26.40;14.85;;;16.40;99.90;;;;;;21031670;28;20036;-56
